sensor_id;sensor_type;location;lat;lon;timestamp;temperature;humidity
14519;DHT22;7346;50.846;4.388;2022-09-09T00:01:53;16.10;99.90
14519;DHT22;7346;50.846;4.388;2022-09-09T00:04:26;16.10;99.90
14519;DHT22;7346;50.846;4.388;2022-09-09T00:06:59;16.00;99.90
14519;DHT22;7346;50.846;4.388;2022-09-09T00:09:32;16.00;99.90
14519;DHT22;7346;50.846;4.388;2022-09-09T00:12:10;16.00;99.90
14519;DHT22;7346;50.846;4.388;2022-09-09T00:14:46;16.00;99.90
14519;DHT22;7346;50.846;4.388;2022-09-09T00:17:20;15.90;99.90
14519;DHT22;7346;50.846;4.388;2022-09-09T00:19:54;15.80;99.90
14519;DHT22;7346;50.846;4.388;2022-09-09T00:22:26;15.90;99.90
14519;DHT22;7346;50.846;4.388;2022-09-09T00:24:56;15.90;99.90
14519;DHT22;7346;50.846;4.388;2022-09-09T00:27:31;15.90;99.90
14519;DHT22;7346;50.846;4.388;2022-09-09T00:30:14;15.80;99.90
14519;DHT22;7346;50.846;4.388;2022-09-09T00:32:44;15.80;99.90
14519;DHT22;7346;50.846;4.388;2022-09-09T00:35:17;15.90;99.90
14519;DHT22;7346;50.846;4.388;2022-09-09T00:37:46;15.90;99.90
14519;DHT22;7346;50.846;4.388;2022-09-09T00:40:25;15.90;99.90
14519;DHT22;7346;50.846;4.388;2022-09-09T00:48:50;16.00;99.90
14519;DHT22;7346;50.846;4.388;2022-09-09T00:51:25;16.00;99.90
14519;DHT22;7346;50.846;4.388;2022-09-09T00:54:13;16.00;99.90
14519;DHT22;7346;50.846;4.388;2022-09-09T00:56:49;16.00;99.90
14519;DHT22;7346;50.846;4.388;2022-09-09T00:59:26;16.00;99.90
14519;DHT22;7346;50.846;4.388;2022-09-09T01:01:55;16.00;99.90
14519;DHT22;7346;50.846;4.388;2022-09-09T01:04:28;16.00;99.90
14519;DHT22;7346;50.846;4.388;2022-09-09T01:07:02;16.00;99.90
14519;DHT22;7346;50.846;4.388;2022-09-09T01:09:38;16.10;99.90
14519;DHT22;7346;50.846;4.388;2022-09-09T01:12:15;16.10;99.90
14519;DHT22;7346;50.846;4.388;2022-09-09T01:14:47;16.10;99.90
14519;DHT22;7346;50.846;4.388;2022-09-09T01:17:19;16.10;99.90
14519;DHT22;7346;50.846;4.388;2022-09-09T01:19:58;16.20;99.90
14519;DHT22;7346;50.846;4.388;2022-09-09T01:22:34;16.10;99.90
14519;DHT22;7346;50.846;4.388;2022-09-09T01:25:15;16.10;99.90
14519;DHT22;7346;50.846;4.388;2022-09-09T01:27:47;16.00;99.90
14519;DHT22;7346;50.846;4.388;2022-09-09T01:30:16;16.00;99.90
14519;DHT22;7346;50.846;4.388;2022-09-09T01:32:46;16.00;99.90
14519;DHT22;7346;50.846;4.388;2022-09-09T01:35:22;15.90;99.90
14519;DHT22;7346;50.846;4.388;2022-09-09T01:37:54;16.00;99.90
14519;DHT22;7346;50.846;4.388;2022-09-09T01:40:21;15.90;99.90
14519;DHT22;7346;50.846;4.388;2022-09-09T01:42:50;15.90;99.90
14519;DHT22;7346;50.846;4.388;2022-09-09T01:45:17;15.90;99.90
14519;DHT22;7346;50.846;4.388;2022-09-09T01:47:45;15.90;99.90
14519;DHT22;7346;50.846;4.388;2022-09-09T01:50:14;15.90;99.90
14519;DHT22;7346;50.846;4.388;2022-09-09T01:52:44;15.90;99.90
14519;DHT22;7346;50.846;4.388;2022-09-09T01:55:12;15.90;99.90
14519;DHT22;7346;50.846;4.388;2022-09-09T01:57:44;15.90;99.90
14519;DHT22;7346;50.846;4.388;2022-09-09T02:00:16;15.90;99.90
14519;DHT22;7346;50.846;4.388;2022-09-09T02:02:51;15.90;99.90
14519;DHT22;7346;50.846;4.388;2022-09-09T02:05:30;15.90;99.90
14519;DHT22;7346;50.846;4.388;2022-09-09T02:08:06;15.90;99.90
14519;DHT22;7346;50.846;4.388;2022-09-09T02:10:37;15.90;99.90
14519;DHT22;7346;50.846;4.388;2022-09-09T02:13:09;15.90;99.90
14519;DHT22;7346;50.846;4.388;2022-09-09T02:15:44;16.00;99.90
14519;DHT22;7346;50.846;4.388;2022-09-09T02:18:16;16.00;99.90
14519;DHT22;7346;50.846;4.388;2022-09-09T02:20:45;16.00;99.90
14519;DHT22;7346;50.846;4.388;2022-09-09T02:23:14;16.00;99.90
14519;DHT22;7346;50.846;4.388;2022-09-09T02:25:41;15.90;99.90
14519;DHT22;7346;50.846;4.388;2022-09-09T02:28:11;16.00;99.90
14519;DHT22;7346;50.846;4.388;2022-09-09T02:30:41;16.00;99.90
14519;DHT22;7346;50.846;4.388;2022-09-09T02:33:10;16.00;99.90
14519;DHT22;7346;50.846;4.388;2022-09-09T02:35:39;16.00;99.90
14519;DHT22;7346;50.846;4.388;2022-09-09T02:38:10;16.00;99.90
14519;DHT22;7346;50.846;4.388;2022-09-09T02:40:39;16.00;99.90
14519;DHT22;7346;50.846;4.388;2022-09-09T02:43:06;16.00;99.90
14519;DHT22;7346;50.846;4.388;2022-09-09T02:45:38;16.00;99.90
14519;DHT22;7346;50.846;4.388;2022-09-09T02:48:14;16.00;99.90
14519;DHT22;7346;50.846;4.388;2022-09-09T02:50:50;16.00;99.90
14519;DHT22;7346;50.846;4.388;2022-09-09T02:53:24;16.00;99.90
14519;DHT22;7346;50.846;4.388;2022-09-09T02:55:56;16.00;99.90
14519;DHT22;7346;50.846;4.388;2022-09-09T02:58:25;16.00;99.90
14519;DHT22;7346;50.846;4.388;2022-09-09T03:00:52;16.00;99.90
14519;DHT22;7346;50.846;4.388;2022-09-09T03:03:21;16.00;99.90
14519;DHT22;7346;50.846;4.388;2022-09-09T03:05:48;16.00;99.90
14519;DHT22;7346;50.846;4.388;2022-09-09T03:08:15;16.00;99.90
14519;DHT22;7346;50.846;4.388;2022-09-09T03:10:42;16.00;99.90
14519;DHT22;7346;50.846;4.388;2022-09-09T03:13:10;16.00;99.90
14519;DHT22;7346;50.846;4.388;2022-09-09T03:15:38;16.00;99.90
14519;DHT22;7346;50.846;4.388;2022-09-09T03:18:05;16.00;99.90
14519;DHT22;7346;50.846;4.388;2022-09-09T03:20:33;16.00;99.90
14519;DHT22;7346;50.846;4.388;2022-09-09T03:23:00;16.00;99.90
14519;DHT22;7346;50.846;4.388;2022-09-09T03:25:28;16.00;99.90
14519;DHT22;7346;50.846;4.388;2022-09-09T03:27:55;16.00;99.90
14519;DHT22;7346;50.846;4.388;2022-09-09T03:30:23;16.00;99.90
14519;DHT22;7346;50.846;4.388;2022-09-09T03:32:50;15.90;99.90
14519;DHT22;7346;50.846;4.388;2022-09-09T03:35:17;15.90;99.90
14519;DHT22;7346;50.846;4.388;2022-09-09T03:37:46;15.90;99.90
14519;DHT22;7346;50.846;4.388;2022-09-09T03:40:14;15.90;99.90
14519;DHT22;7346;50.846;4.388;2022-09-09T03:42:41;15.80;99.90
14519;DHT22;7346;50.846;4.388;2022-09-09T03:45:09;15.80;99.90
14519;DHT22;7346;50.846;4.388;2022-09-09T03:47:36;15.80;99.90
14519;DHT22;7346;50.846;4.388;2022-09-09T03:50:04;15.80;99.90
14519;DHT22;7346;50.846;4.388;2022-09-09T03:52:35;15.80;99.90
14519;DHT22;7346;50.846;4.388;2022-09-09T03:55:04;15.80;99.90
14519;DHT22;7346;50.846;4.388;2022-09-09T03:57:31;15.70;99.90
14519;DHT22;7346;50.846;4.388;2022-09-09T04:00:00;15.70;99.90
14519;DHT22;7346;50.846;4.388;2022-09-09T04:02:27;15.70;99.90
14519;DHT22;7346;50.846;4.388;2022-09-09T04:04:54;15.80;99.90
14519;DHT22;7346;50.846;4.388;2022-09-09T04:07:21;15.80;99.90
14519;DHT22;7346;50.846;4.388;2022-09-09T04:09:48;15.80;99.90
14519;DHT22;7346;50.846;4.388;2022-09-09T04:12:17;15.90;99.90
14519;DHT22;7346;50.846;4.388;2022-09-09T04:14:43;15.90;99.90
14519;DHT22;7346;50.846;4.388;2022-09-09T04:17:10;15.90;99.90
14519;DHT22;7346;50.846;4.388;2022-09-09T04:19:37;15.90;99.90
14519;DHT22;7346;50.846;4.388;2022-09-09T04:22:04;15.90;99.90
14519;DHT22;7346;50.846;4.388;2022-09-09T04:24:31;15.90;99.90
14519;DHT22;7346;50.846;4.388;2022-09-09T04:26:58;15.80;99.90
14519;DHT22;7346;50.846;4.388;2022-09-09T04:29:26;15.80;99.90
14519;DHT22;7346;50.846;4.388;2022-09-09T04:31:53;15.80;99.90
14519;DHT22;7346;50.846;4.388;2022-09-09T04:34:20;15.80;99.90
14519;DHT22;7346;50.846;4.388;2022-09-09T04:36:47;15.80;99.90
14519;DHT22;7346;50.846;4.388;2022-09-09T04:39:14;15.70;99.90
14519;DHT22;7346;50.846;4.388;2022-09-09T04:41:41;15.70;99.90
14519;DHT22;7346;50.846;4.388;2022-09-09T04:44:07;15.70;99.90
14519;DHT22;7346;50.846;4.388;2022-09-09T04:46:36;15.70;99.90
14519;DHT22;7346;50.846;4.388;2022-09-09T04:49:03;15.70;99.90
14519;DHT22;7346;50.846;4.388;2022-09-09T04:51:30;15.70;99.90
14519;DHT22;7346;50.846;4.388;2022-09-09T04:53:57;15.70;99.90
14519;DHT22;7346;50.846;4.388;2022-09-09T04:56:24;15.70;99.90
14519;DHT22;7346;50.846;4.388;2022-09-09T04:58:52;15.70;99.90
14519;DHT22;7346;50.846;4.388;2022-09-09T05:01:21;15.70;99.90
14519;DHT22;7346;50.846;4.388;2022-09-09T05:03:51;15.70;99.90
14519;DHT22;7346;50.846;4.388;2022-09-09T05:06:19;15.70;99.90
14519;DHT22;7346;50.846;4.388;2022-09-09T05:08:47;15.70;99.90
14519;DHT22;7346;50.846;4.388;2022-09-09T05:11:19;15.70;99.90
14519;DHT22;7346;50.846;4.388;2022-09-09T05:13:46;15.70;99.90
14519;DHT22;7346;50.846;4.388;2022-09-09T05:16:13;15.70;99.90
14519;DHT22;7346;50.846;4.388;2022-09-09T05:18:41;15.80;99.90
14519;DHT22;7346;50.846;4.388;2022-09-09T05:21:11;15.80;99.90
14519;DHT22;7346;50.846;4.388;2022-09-09T05:23:38;15.90;99.90
14519;DHT22;7346;50.846;4.388;2022-09-09T05:26:06;15.90;99.90
14519;DHT22;7346;50.846;4.388;2022-09-09T05:28:34;16.00;99.90
14519;DHT22;7346;50.846;4.388;2022-09-09T05:31:03;16.00;99.90
14519;DHT22;7346;50.846;4.388;2022-09-09T05:33:34;16.10;99.90
14519;DHT22;7346;50.846;4.388;2022-09-09T05:36:02;16.10;99.90
14519;DHT22;7346;50.846;4.388;2022-09-09T05:38:31;16.10;99.90
14519;DHT22;7346;50.846;4.388;2022-09-09T05:40:59;16.10;99.90
14519;DHT22;7346;50.846;4.388;2022-09-09T05:43:26;16.10;99.90
14519;DHT22;7346;50.846;4.388;2022-09-09T05:46:02;16.10;99.90
14519;DHT22;7346;50.846;4.388;2022-09-09T05:48:30;16.00;99.90
14519;DHT22;7346;50.846;4.388;2022-09-09T05:50:57;16.10;99.90
14519;DHT22;7346;50.846;4.388;2022-09-09T05:53:24;16.10;99.90
14519;DHT22;7346;50.846;4.388;2022-09-09T05:56:00;16.10;99.90
14519;DHT22;7346;50.846;4.388;2022-09-09T05:58:28;16.10;99.90
14519;DHT22;7346;50.846;4.388;2022-09-09T06:01:01;16.00;99.90
14519;DHT22;7346;50.846;4.388;2022-09-09T06:03:28;16.00;99.90
14519;DHT22;7346;50.846;4.388;2022-09-09T06:05:59;16.10;99.90
14519;DHT22;7346;50.846;4.388;2022-09-09T06:08:27;16.10;99.90
14519;DHT22;7346;50.846;4.388;2022-09-09T06:11:02;16.10;99.90
14519;DHT22;7346;50.846;4.388;2022-09-09T06:13:30;16.00;99.90
14519;DHT22;7346;50.846;4.388;2022-09-09T06:15:57;16.10;99.90
14519;DHT22;7346;50.846;4.388;2022-09-09T06:18:24;16.20;99.90
14519;DHT22;7346;50.846;4.388;2022-09-09T06:20:58;16.30;99.90
14519;DHT22;7346;50.846;4.388;2022-09-09T06:23:26;16.40;99.90
14519;DHT22;7346;50.846;4.388;2022-09-09T06:26:03;16.40;99.90
14519;DHT22;7346;50.846;4.388;2022-09-09T06:28:31;16.40;99.90
14519;DHT22;7346;50.846;4.388;2022-09-09T06:30:59;16.40;99.90
14519;DHT22;7346;50.846;4.388;2022-09-09T06:33:26;16.40;99.90
14519;DHT22;7346;50.846;4.388;2022-09-09T06:35:54;16.40;99.90
14519;DHT22;7346;50.846;4.388;2022-09-09T06:38:22;16.50;99.90
14519;DHT22;7346;50.846;4.388;2022-09-09T06:40:53;16.50;99.90
14519;DHT22;7346;50.846;4.388;2022-09-09T06:43:22;16.50;99.90
14519;DHT22;7346;50.846;4.388;2022-09-09T06:45:54;16.50;99.90
14519;DHT22;7346;50.846;4.388;2022-09-09T06:48:21;16.60;99.90
14519;DHT22;7346;50.846;4.388;2022-09-09T06:50:48;16.50;99.90
14519;DHT22;7346;50.846;4.388;2022-09-09T06:53:16;16.50;99.90
14519;DHT22;7346;50.846;4.388;2022-09-09T06:55:44;16.50;99.90
14519;DHT22;7346;50.846;4.388;2022-09-09T06:58:11;16.50;99.90
14519;DHT22;7346;50.846;4.388;2022-09-09T07:00:40;16.70;99.90
14519;DHT22;7346;50.846;4.388;2022-09-09T07:03:07;16.70;99.90
14519;DHT22;7346;50.846;4.388;2022-09-09T07:05:36;16.80;99.90
14519;DHT22;7346;50.846;4.388;2022-09-09T07:08:03;16.80;99.90
14519;DHT22;7346;50.846;4.388;2022-09-09T07:10:31;16.80;99.90
14519;DHT22;7346;50.846;4.388;2022-09-09T07:12:59;16.80;99.90
14519;DHT22;7346;50.846;4.388;2022-09-09T07:15:27;16.90;99.90
14519;DHT22;7346;50.846;4.388;2022-09-09T07:17:55;16.90;99.90
14519;DHT22;7346;50.846;4.388;2022-09-09T07:20:22;17.00;99.90
14519;DHT22;7346;50.846;4.388;2022-09-09T07:22:49;17.00;99.90
14519;DHT22;7346;50.846;4.388;2022-09-09T07:25:16;17.00;99.90
14519;DHT22;7346;50.846;4.388;2022-09-09T07:27:43;17.00;99.90
14519;DHT22;7346;50.846;4.388;2022-09-09T07:30:11;17.10;99.90
14519;DHT22;7346;50.846;4.388;2022-09-09T07:32:39;17.00;99.90
14519;DHT22;7346;50.846;4.388;2022-09-09T07:35:08;17.00;99.90
14519;DHT22;7346;50.846;4.388;2022-09-09T07:37:36;17.00;99.90
14519;DHT22;7346;50.846;4.388;2022-09-09T07:40:04;16.90;99.90
14519;DHT22;7346;50.846;4.388;2022-09-09T07:42:31;17.00;99.90
14519;DHT22;7346;50.846;4.388;2022-09-09T07:45:01;17.00;99.90
14519;DHT22;7346;50.846;4.388;2022-09-09T07:47:28;17.00;99.90
14519;DHT22;7346;50.846;4.388;2022-09-09T07:49:55;16.90;99.90
14519;DHT22;7346;50.846;4.388;2022-09-09T07:52:23;16.70;99.90
14519;DHT22;7346;50.846;4.388;2022-09-09T07:54:50;16.70;99.90
14519;DHT22;7346;50.846;4.388;2022-09-09T07:57:17;16.80;99.90
14519;DHT22;7346;50.846;4.388;2022-09-09T07:59:44;16.80;99.90
14519;DHT22;7346;50.846;4.388;2022-09-09T08:02:12;16.70;99.90
14519;DHT22;7346;50.846;4.388;2022-09-09T08:04:39;16.60;99.90
14519;DHT22;7346;50.846;4.388;2022-09-09T08:07:05;16.70;99.90
14519;DHT22;7346;50.846;4.388;2022-09-09T08:09:34;16.70;99.90
14519;DHT22;7346;50.846;4.388;2022-09-09T08:12:01;16.90;99.90
14519;DHT22;7346;50.846;4.388;2022-09-09T08:14:28;17.10;99.90
14519;DHT22;7346;50.846;4.388;2022-09-09T08:16:55;17.20;99.90
14519;DHT22;7346;50.846;4.388;2022-09-09T08:19:22;17.30;99.90
14519;DHT22;7346;50.846;4.388;2022-09-09T08:21:50;17.40;99.90
14519;DHT22;7346;50.846;4.388;2022-09-09T08:24:17;17.40;99.90
14519;DHT22;7346;50.846;4.388;2022-09-09T08:26:47;17.40;99.90
14519;DHT22;7346;50.846;4.388;2022-09-09T08:29:15;17.30;99.90
14519;DHT22;7346;50.846;4.388;2022-09-09T08:31:43;17.50;99.90
14519;DHT22;7346;50.846;4.388;2022-09-09T08:34:11;17.50;99.90
14519;DHT22;7346;50.846;4.388;2022-09-09T08:36:40;17.50;99.90
14519;DHT22;7346;50.846;4.388;2022-09-09T08:39:09;17.50;99.90
14519;DHT22;7346;50.846;4.388;2022-09-09T08:42:23;17.40;99.90
14519;DHT22;7346;50.846;4.388;2022-09-09T08:45:15;17.30;99.90
14519;DHT22;7346;50.846;4.388;2022-09-09T08:47:56;17.30;99.90
14519;DHT22;7346;50.846;4.388;2022-09-09T08:50:26;17.30;99.90
14519;DHT22;7346;50.846;4.388;2022-09-09T08:52:59;17.20;99.90
14519;DHT22;7346;50.846;4.388;2022-09-09T08:55:35;17.10;99.90
14519;DHT22;7346;50.846;4.388;2022-09-09T08:58:11;17.10;99.90
14519;DHT22;7346;50.846;4.388;2022-09-09T09:00:49;17.20;99.90
14519;DHT22;7346;50.846;4.388;2022-09-09T09:03:24;17.30;99.90
14519;DHT22;7346;50.846;4.388;2022-09-09T09:06:01;17.30;99.90
14519;DHT22;7346;50.846;4.388;2022-09-09T09:08:36;17.30;99.90
14519;DHT22;7346;50.846;4.388;2022-09-09T09:11:04;17.30;99.90
14519;DHT22;7346;50.846;4.388;2022-09-09T09:13:38;17.30;99.90
14519;DHT22;7346;50.846;4.388;2022-09-09T09:16:13;17.20;99.90
14519;DHT22;7346;50.846;4.388;2022-09-09T09:18:41;17.10;99.90
14519;DHT22;7346;50.846;4.388;2022-09-09T09:21:12;17.00;99.90
14519;DHT22;7346;50.846;4.388;2022-09-09T09:23:43;16.90;99.90
14519;DHT22;7346;50.846;4.388;2022-09-09T09:26:12;16.90;99.90
14519;DHT22;7346;50.846;4.388;2022-09-09T09:28:40;16.90;99.90
14519;DHT22;7346;50.846;4.388;2022-09-09T09:31:10;16.90;99.90
14519;DHT22;7346;50.846;4.388;2022-09-09T09:33:45;17.00;99.90
14519;DHT22;7346;50.846;4.388;2022-09-09T09:36:14;17.00;99.90
14519;DHT22;7346;50.846;4.388;2022-09-09T09:38:52;17.00;99.90
14519;DHT22;7346;50.846;4.388;2022-09-09T09:41:29;17.00;99.90
14519;DHT22;7346;50.846;4.388;2022-09-09T09:43:58;17.00;99.90
14519;DHT22;7346;50.846;4.388;2022-09-09T09:46:27;17.10;99.90
14519;DHT22;7346;50.846;4.388;2022-09-09T09:49:00;17.10;99.90
14519;DHT22;7346;50.846;4.388;2022-09-09T09:51:29;17.00;99.90
14519;DHT22;7346;50.846;4.388;2022-09-09T09:54:17;17.10;99.90
14519;DHT22;7346;50.846;4.388;2022-09-09T09:56:46;17.10;99.90
14519;DHT22;7346;50.846;4.388;2022-09-09T09:59:33;17.20;99.90
14519;DHT22;7346;50.846;4.388;2022-09-09T10:02:17;17.20;99.90
14519;DHT22;7346;50.846;4.388;2022-09-09T10:04:45;17.20;99.90
14519;DHT22;7346;50.846;4.388;2022-09-09T10:07:16;17.20;99.90
14519;DHT22;7346;50.846;4.388;2022-09-09T10:09:44;17.20;99.90
14519;DHT22;7346;50.846;4.388;2022-09-09T10:12:19;17.20;99.90
14519;DHT22;7346;50.846;4.388;2022-09-09T10:14:59;17.30;99.90
14519;DHT22;7346;50.846;4.388;2022-09-09T10:17:34;17.30;99.90
14519;DHT22;7346;50.846;4.388;2022-09-09T10:20:16;17.30;99.90
14519;DHT22;7346;50.846;4.388;2022-09-09T10:22:50;17.30;99.90
14519;DHT22;7346;50.846;4.388;2022-09-09T10:25:24;17.30;99.90
14519;DHT22;7346;50.846;4.388;2022-09-09T10:28:10;17.30;99.90
14519;DHT22;7346;50.846;4.388;2022-09-09T10:30:52;17.30;99.90
14519;DHT22;7346;50.846;4.388;2022-09-09T10:33:31;17.40;99.90
14519;DHT22;7346;50.846;4.388;2022-09-09T10:36:06;17.50;99.90
14519;DHT22;7346;50.846;4.388;2022-09-09T10:38:39;17.70;99.90
14519;DHT22;7346;50.846;4.388;2022-09-09T10:41:32;17.80;99.90
14519;DHT22;7346;50.846;4.388;2022-09-09T10:44:35;17.90;99.90
14519;DHT22;7346;50.846;4.388;2022-09-09T10:50:16;17.90;99.90
14519;DHT22;7346;50.846;4.388;2022-09-09T10:52:50;18.00;99.90
14519;DHT22;7346;50.846;4.388;2022-09-09T10:55:23;18.20;99.90
14519;DHT22;7346;50.846;4.388;2022-09-09T10:57:54;18.30;99.90
14519;DHT22;7346;50.846;4.388;2022-09-09T11:00:24;18.40;99.90
14519;DHT22;7346;50.846;4.388;2022-09-09T11:02:56;18.30;99.90
14519;DHT22;7346;50.846;4.388;2022-09-09T11:05:28;18.50;99.90
14519;DHT22;7346;50.846;4.388;2022-09-09T11:07:59;18.60;99.90
14519;DHT22;7346;50.846;4.388;2022-09-09T11:10:36;18.60;99.90
14519;DHT22;7346;50.846;4.388;2022-09-09T11:13:10;18.40;99.90
14519;DHT22;7346;50.846;4.388;2022-09-09T11:15:41;18.40;99.90
14519;DHT22;7346;50.846;4.388;2022-09-09T11:18:15;18.30;99.90
14519;DHT22;7346;50.846;4.388;2022-09-09T11:20:44;18.40;99.90
14519;DHT22;7346;50.846;4.388;2022-09-09T11:23:15;18.40;99.90
14519;DHT22;7346;50.846;4.388;2022-09-09T11:25:47;18.40;99.90
14519;DHT22;7346;50.846;4.388;2022-09-09T11:28:32;18.50;99.90
14519;DHT22;7346;50.846;4.388;2022-09-09T11:31:12;18.50;99.90
14519;DHT22;7346;50.846;4.388;2022-09-09T11:33:51;18.40;99.90
14519;DHT22;7346;50.846;4.388;2022-09-09T11:36:43;18.40;99.90
14519;DHT22;7346;50.846;4.388;2022-09-09T11:39:44;18.40;99.90
14519;DHT22;7346;50.846;4.388;2022-09-09T11:42:18;18.40;99.90
14519;DHT22;7346;50.846;4.388;2022-09-09T11:44:45;18.40;99.90
14519;DHT22;7346;50.846;4.388;2022-09-09T11:47:24;18.40;99.90
14519;DHT22;7346;50.846;4.388;2022-09-09T11:50:07;18.50;99.90
14519;DHT22;7346;50.846;4.388;2022-09-09T11:52:40;18.60;99.90
14519;DHT22;7346;50.846;4.388;2022-09-09T11:55:19;18.60;99.90
14519;DHT22;7346;50.846;4.388;2022-09-09T11:57:57;18.40;99.90
14519;DHT22;7346;50.846;4.388;2022-09-09T12:00:33;18.50;99.90
14519;DHT22;7346;50.846;4.388;2022-09-09T12:03:00;18.50;99.90
14519;DHT22;7346;50.846;4.388;2022-09-09T12:05:39;18.50;99.90
14519;DHT22;7346;50.846;4.388;2022-09-09T12:08:09;18.70;99.90
14519;DHT22;7346;50.846;4.388;2022-09-09T12:10:39;18.60;99.90
14519;DHT22;7346;50.846;4.388;2022-09-09T12:13:16;18.60;99.90
14519;DHT22;7346;50.846;4.388;2022-09-09T12:15:49;18.40;99.90
14519;DHT22;7346;50.846;4.388;2022-09-09T12:18:23;18.40;99.90
14519;DHT22;7346;50.846;4.388;2022-09-09T12:20:59;18.50;99.90
14519;DHT22;7346;50.846;4.388;2022-09-09T12:23:38;18.40;99.90
14519;DHT22;7346;50.846;4.388;2022-09-09T12:26:22;18.40;99.90
14519;DHT22;7346;50.846;4.388;2022-09-09T12:28:59;18.30;99.90
14519;DHT22;7346;50.846;4.388;2022-09-09T12:31:32;18.40;99.90
14519;DHT22;7346;50.846;4.388;2022-09-09T12:34:10;18.60;99.90
14519;DHT22;7346;50.846;4.388;2022-09-09T12:36:40;18.80;99.90
14519;DHT22;7346;50.846;4.388;2022-09-09T12:39:17;19.00;99.90
14519;DHT22;7346;50.846;4.388;2022-09-09T12:41:51;19.10;99.90
14519;DHT22;7346;50.846;4.388;2022-09-09T12:44:23;19.20;99.90
14519;DHT22;7346;50.846;4.388;2022-09-09T12:46:51;19.20;99.90
14519;DHT22;7346;50.846;4.388;2022-09-09T12:49:27;19.30;99.90
14519;DHT22;7346;50.846;4.388;2022-09-09T12:51:58;19.30;99.90
14519;DHT22;7346;50.846;4.388;2022-09-09T12:54:26;19.40;99.90
14519;DHT22;7346;50.846;4.388;2022-09-09T12:56:53;19.50;99.90
14519;DHT22;7346;50.846;4.388;2022-09-09T12:59:24;19.40;99.90
14519;DHT22;7346;50.846;4.388;2022-09-09T13:01:58;19.40;99.90
14519;DHT22;7346;50.846;4.388;2022-09-09T13:04:25;19.60;99.90
14519;DHT22;7346;50.846;4.388;2022-09-09T13:06:52;19.60;99.90
14519;DHT22;7346;50.846;4.388;2022-09-09T13:09:20;19.70;99.90
14519;DHT22;7346;50.846;4.388;2022-09-09T13:11:49;19.60;99.90
14519;DHT22;7346;50.846;4.388;2022-09-09T13:14:22;19.60;99.90
14519;DHT22;7346;50.846;4.388;2022-09-09T13:16:56;19.70;99.90
14519;DHT22;7346;50.846;4.388;2022-09-09T13:19:23;19.80;99.90
14519;DHT22;7346;50.846;4.388;2022-09-09T13:21:53;19.80;99.90
14519;DHT22;7346;50.846;4.388;2022-09-09T13:24:31;19.90;99.90
14519;DHT22;7346;50.846;4.388;2022-09-09T13:26:59;19.80;99.90
14519;DHT22;7346;50.846;4.388;2022-09-09T13:29:27;19.60;99.90
14519;DHT22;7346;50.846;4.388;2022-09-09T13:32:03;19.60;99.90
14519;DHT22;7346;50.846;4.388;2022-09-09T13:34:33;19.70;99.90
14519;DHT22;7346;50.846;4.388;2022-09-09T13:37:02;19.70;99.90
14519;DHT22;7346;50.846;4.388;2022-09-09T13:39:33;19.90;99.90
14519;DHT22;7346;50.846;4.388;2022-09-09T13:42:02;20.00;99.90
14519;DHT22;7346;50.846;4.388;2022-09-09T13:44:33;20.10;99.90
14519;DHT22;7346;50.846;4.388;2022-09-09T13:47:03;20.20;99.90
14519;DHT22;7346;50.846;4.388;2022-09-09T13:49:31;20.30;99.90
14519;DHT22;7346;50.846;4.388;2022-09-09T13:52:04;20.40;99.90
14519;DHT22;7346;50.846;4.388;2022-09-09T13:54:34;20.50;99.90
14519;DHT22;7346;50.846;4.388;2022-09-09T13:57:01;20.70;99.90
14519;DHT22;7346;50.846;4.388;2022-09-09T13:59:30;20.80;99.90
14519;DHT22;7346;50.846;4.388;2022-09-09T14:01:57;20.70;99.90
14519;DHT22;7346;50.846;4.388;2022-09-09T14:04:24;20.50;99.90
14519;DHT22;7346;50.846;4.388;2022-09-09T14:06:51;20.70;99.90
14519;DHT22;7346;50.846;4.388;2022-09-09T14:09:18;20.80;99.90
14519;DHT22;7346;50.846;4.388;2022-09-09T14:11:47;21.00;99.90
14519;DHT22;7346;50.846;4.388;2022-09-09T14:14:13;21.00;99.90
14519;DHT22;7346;50.846;4.388;2022-09-09T14:16:40;20.70;99.90
14519;DHT22;7346;50.846;4.388;2022-09-09T14:19:08;20.60;99.90
14519;DHT22;7346;50.846;4.388;2022-09-09T14:21:35;20.50;99.90
14519;DHT22;7346;50.846;4.388;2022-09-09T14:24:02;20.50;99.90
14519;DHT22;7346;50.846;4.388;2022-09-09T14:26:29;20.40;99.90
14519;DHT22;7346;50.846;4.388;2022-09-09T14:28:58;20.30;99.90
14519;DHT22;7346;50.846;4.388;2022-09-09T14:31:26;20.30;99.90
14519;DHT22;7346;50.846;4.388;2022-09-09T14:33:53;20.30;99.90
14519;DHT22;7346;50.846;4.388;2022-09-09T14:36:20;20.20;99.90
14519;DHT22;7346;50.846;4.388;2022-09-09T14:38:47;20.30;99.90
14519;DHT22;7346;50.846;4.388;2022-09-09T14:41:15;20.40;99.90
14519;DHT22;7346;50.846;4.388;2022-09-09T14:43:43;20.50;99.90
14519;DHT22;7346;50.846;4.388;2022-09-09T14:46:13;20.30;99.90
14519;DHT22;7346;50.846;4.388;2022-09-09T14:48:40;20.00;99.90
14519;DHT22;7346;50.846;4.388;2022-09-09T14:51:08;20.00;99.90
14519;DHT22;7346;50.846;4.388;2022-09-09T14:53:36;20.10;99.90
14519;DHT22;7346;50.846;4.388;2022-09-09T14:56:05;20.30;99.90
14519;DHT22;7346;50.846;4.388;2022-09-09T14:58:32;20.20;99.90
14519;DHT22;7346;50.846;4.388;2022-09-09T15:01:04;20.30;99.90
14519;DHT22;7346;50.846;4.388;2022-09-09T15:03:32;20.50;99.90
14519;DHT22;7346;50.846;4.388;2022-09-09T15:06:05;20.40;99.90
14519;DHT22;7346;50.846;4.388;2022-09-09T15:08:34;20.50;99.90
14519;DHT22;7346;50.846;4.388;2022-09-09T15:11:01;20.50;99.90
14519;DHT22;7346;50.846;4.388;2022-09-09T15:13:29;20.50;99.90
14519;DHT22;7346;50.846;4.388;2022-09-09T15:15:56;20.40;99.90
14519;DHT22;7346;50.846;4.388;2022-09-09T15:18:23;20.50;99.90
14519;DHT22;7346;50.846;4.388;2022-09-09T15:20:55;20.60;99.90
14519;DHT22;7346;50.846;4.388;2022-09-09T15:23:25;20.70;99.90
14519;DHT22;7346;50.846;4.388;2022-09-09T15:25:53;20.80;99.90
14519;DHT22;7346;50.846;4.388;2022-09-09T15:28:21;20.70;99.90
14519;DHT22;7346;50.846;4.388;2022-09-09T15:30:49;20.50;99.90
14519;DHT22;7346;50.846;4.388;2022-09-09T15:33:17;20.40;99.90
14519;DHT22;7346;50.846;4.388;2022-09-09T15:35:44;20.40;99.90
14519;DHT22;7346;50.846;4.388;2022-09-09T15:38:13;20.30;99.90
14519;DHT22;7346;50.846;4.388;2022-09-09T15:40:40;20.20;99.90
14519;DHT22;7346;50.846;4.388;2022-09-09T15:43:08;20.20;99.90
14519;DHT22;7346;50.846;4.388;2022-09-09T15:45:36;20.30;99.90
14519;DHT22;7346;50.846;4.388;2022-09-09T15:48:04;20.40;99.90
14519;DHT22;7346;50.846;4.388;2022-09-09T15:50:31;20.60;99.90
14519;DHT22;7346;50.846;4.388;2022-09-09T15:52:58;20.60;99.90
14519;DHT22;7346;50.846;4.388;2022-09-09T15:55:26;20.60;99.90
14519;DHT22;7346;50.846;4.388;2022-09-09T15:57:53;20.70;99.90
14519;DHT22;7346;50.846;4.388;2022-09-09T16:00:20;20.70;99.90
14519;DHT22;7346;50.846;4.388;2022-09-09T16:02:48;20.50;99.90
14519;DHT22;7346;50.846;4.388;2022-09-09T16:05:15;20.40;99.90
14519;DHT22;7346;50.846;4.388;2022-09-09T16:07:42;20.10;99.90
14519;DHT22;7346;50.846;4.388;2022-09-09T16:10:10;20.00;99.90
14519;DHT22;7346;50.846;4.388;2022-09-09T16:12:40;19.90;99.90
14519;DHT22;7346;50.846;4.388;2022-09-09T16:15:08;19.90;99.90
14519;DHT22;7346;50.846;4.388;2022-09-09T16:17:35;19.90;99.90